This is the latest recevied weather packets stored in our database for station/object Sauldorf. If no packets are shown the sender has not sent any weather packets the latest 10 day(s).
| Time | Temp. | Humidity | Pressure | Rain* | Wind** | Luminosity | Snow |
|---|---|---|---|---|---|---|---|
| 1777883533 | 18.89° C | 45% | 1013.1 hPa | 0 mm | - | - | - |
| 1777881731 | 18.33° C | 51% | 1013.2 hPa | 0 mm | - | - | - |
| 1777879930 | 16.67° C | 55% | 1013.4 hPa | 0 mm | - | - | - |
| 1777878132 | 15° C | 68% | 1013.5 hPa | 0 mm | - | - | - |
| 1777876331 | 12.78° C | 75% | 1013.5 hPa | 0 mm | - | - | - |
| 1777874532 | 10.56° C | 83% | 1013.4 hPa | 0 mm | - | - | - |
| 1777872731 | 8.33° C | 85% | 1013.5 hPa | 0 mm | - | - | - |
| 1777870930 | 8.33° C | 83% | 1013.5 hPa | 0 mm | - | - | - |
| 1777869131 | 8.33° C | 83% | 1013.5 hPa | 0 mm | - | - | - |
| 1777867331 | 8.33° C | 82% | 1013.7 hPa | 0 mm | - | - | - |
| 1777865531 | 8.33° C | 80% | 1013.9 hPa | 0 mm | - | - | - |
| 1777863732 | 9.44° C | 77% | 1013.9 hPa | 0 mm | - | - | - |
| 1777861931 | 10° C | 76% | 1013.9 hPa | 0 mm | - | - | - |
| 1777860132 | 10.56° C | 76% | 1014.1 hPa | 0 mm | - | - | - |
| 1777858331 | 10.56° C | 76% | 1013.9 hPa | 0 mm | - | - | - |
| 1777856531 | 11.11° C | 75% | 1014.1 hPa | 0 mm | - | - | - |
| 1777854730 | 11.67° C | 74% | 1014 hPa | 0 mm | - | - | - |
| 1777852928 | 11.67° C | 72% | 1014.2 hPa | 0 mm | - | - | - |
| 1777851129 | 11.67° C | 72% | 1014.2 hPa | 0 mm | - | - | - |
| 1777849329 | 12.22° C | 72% | 1014.4 hPa | 0 mm | - | - | - |
| 1777847530 | 12.22° C | 69% | 1014.5 hPa | 0 mm | - | - | - |
| 1777843930 | 12.78° C | 67% | 1014.3 hPa | 0 mm | - | - | - |
| 1777842131 | 12.78° C | 66% | 1013.9 hPa | 0 mm | - | - | - |
| 1777840329 | 13.33° C | 63% | 1013.7 hPa | 0 mm | - | - | - |
| 1777838531 | 13.89° C | 61% | 1013.5 hPa | 0 mm | - | - | - |
* Rain since midnight (hover to see other rain measurements)
** Current wind speed in m/s (hover to see current wind gust speed)